Time;durP1;ratioP1;P1;durP2;ratioP2;P2;SDS_P1;SDS_P2;PMS_P1;PMS_P2;Temp;Humidity;BMP_temperature;BMP_pressure;BME280_temperature;BME280_humidity;BME280_pressure;Samples;Min_cycle;Max_cycle;Signal;HPM_P1;HPM_P2
2022/01/07 00:00:42;;;;;;;;;16.60;15.00;;;;;8.51;54.24;101291.34;2054737;28;47687;-59
2022/01/07 00:01:43;;;;;;;;;17.40;14.80;;;;;8.50;54.18;101272.78;2060920;28;47432;-58
2022/01/07 00:02:45;;;;;;;;;16.00;14.75;;;;;8.50;54.31;101281.59;2059225;28;47466;-59
2022/01/07 00:03:45;;;;;;;;;16.40;15.00;;;;;8.49;54.34;101252.53;2059830;28;47379;-58
2022/01/07 00:04:46;;;;;;;;;15.25;13.50;;;;;8.48;54.53;101266.63;2055961;28;46763;-58
2022/01/07 00:05:46;;;;;;;;;10.50;9.25;;;;;8.46;54.64;101273.69;2053158;28;47131;-59
2022/01/07 00:06:47;;;;;;;;;13.25;12.75;;;;;8.43;54.80;101264.03;2052112;28;46867;-58
2022/01/07 00:07:47;;;;;;;;;15.25;13.50;;;;;8.42;54.87;101264.91;2051485;28;47571;-59
2022/01/07 00:08:47;;;;;;;;;14.25;13.25;;;;;8.41;55.09;101267.56;2052108;28;47231;-59
2022/01/07 00:09:48;;;;;;;;;12.50;11.75;;;;;8.40;55.13;101271.09;2052559;28;45401;-59
2022/01/07 00:10:49;;;;;;;;;15.50;13.50;;;;;8.40;55.18;101279.91;2047869;28;48174;-59
2022/01/07 00:11:49;;;;;;;;;15.75;13.75;;;;;8.40;55.21;101277.25;2052247;28;48233;-59
2022/01/07 00:12:50;;;;;;;;;13.75;12.75;;;;;8.39;55.08;101264.94;2053064;28;48049;-59
2022/01/07 00:13:51;;;;;;;;;13.20;11.80;;;;;8.38;55.32;101257.84;2054505;28;48722;-59
2022/01/07 00:14:54;;;;;;;;;12.75;12.75;;;;;8.39;55.36;101258.75;2049639;28;45325;-59
2022/01/07 00:15:55;;;;;;;;;14.40;12.20;;;;;8.37;55.40;101261.38;2050841;28;48185;-59
2022/01/07 00:16:55;;;;;;;;;15.00;14.00;;;;;8.37;55.45;101247.28;2052919;28;47764;-60
2022/01/07 00:17:58;;;;;;;;;12.75;12.75;;;;;8.35;55.70;101255.22;2052942;28;48026;-58
2022/01/07 00:18:58;;;;;;;;;15.00;14.00;;;;;8.35;55.60;101255.22;2051437;28;47402;-58
2022/01/07 00:19:59;;;;;;;;;11.25;10.75;;;;;8.36;55.25;101250.81;2052265;28;45468;-59
2022/01/07 00:21:00;;;;;;;;;11.75;10.00;;;;;8.35;55.71;101241.13;2054940;27;46911;-59
2022/01/07 00:22:00;;;;;;;;;12.20;10.80;;;;;8.34;55.53;101239.34;2060678;28;47978;-59
2022/01/07 00:23:01;;;;;;;;;8.25;8.25;;;;;8.33;55.84;101235.81;2052112;28;47401;-59
2022/01/07 00:24:01;;;;;;;;;11.75;11.25;;;;;8.32;55.97;101235.81;2052989;28;48299;-59
2022/01/07 00:25:03;;;;;;;;;5.00;5.00;;;;;8.29;56.00;101239.38;2050384;28;47139;-59
2022/01/07 00:26:03;;;;;;;;;10.80;10.80;;;;;8.26;55.96;101224.41;2051977;28;47640;-59
2022/01/07 00:27:04;;;;;;;;;14.50;13.50;;;;;8.25;55.95;101225.25;2052860;28;47680;-59
2022/01/07 00:28:04;;;;;;;;;12.00;11.75;;;;;8.24;56.25;101228.78;2053005;28;47280;-59
2022/01/07 00:29:05;;;;;;;;;11.25;11.25;;;;;8.22;56.32;101233.22;2052670;28;47212;-59
2022/01/07 00:30:07;;;;;;;;;12.75;10.75;;;;;8.22;56.30;101227.03;2051574;28;47459;-58
2022/01/07 00:31:08;;;;;;;;;6.80;6.20;;;;;8.20;56.72;101226.19;2048072;28;47346;-58
2022/01/07 00:32:09;;;;;;;;;11.80;11.80;;;;;8.18;56.67;101206.78;2052070;27;48472;-58
2022/01/07 00:33:09;;;;;;;;;11.00;11.00;;;;;8.17;56.81;101215.63;2051555;28;48051;-58
2022/01/07 00:34:10;;;;;;;;;15.75;11.75;;;;;8.16;56.80;101206.81;2049342;28;47745;-58
2022/01/07 00:35:12;;;;;;;;;10.25;10.25;;;;;8.15;56.74;101214.75;2052665;28;48214;-60
2022/01/07 00:36:13;;;;;;;;;13.00;10.60;;;;;8.13;56.78;101206.84;2049286;28;48374;-58
2022/01/07 00:37:13;;;;;;;;;14.00;13.25;;;;;8.13;56.59;101221.78;2051719;28;47949;-59
2022/01/07 00:38:14;;;;;;;;;11.50;11.50;;;;;8.12;57.23;101223.53;2052049;28;48211;-58
2022/01/07 00:39:14;;;;;;;;;9.25;9.25;;;;;8.13;57.13;101213.84;2052144;28;48115;-58
2022/01/07 00:40:19;;;;;;;;;12.75;10.75;;;;;8.11;56.87;101208.56;2049835;28;47477;-58
2022/01/07 00:41:19;;;;;;;;;14.00;12.40;;;;;8.11;57.38;101213.84;2051165;28;48088;-59
2022/01/07 00:42:20;;;;;;;;;13.00;12.25;;;;;8.10;57.30;101212.09;2053771;28;47326;-59
2022/01/07 00:43:20;;;;;;;;;12.50;11.50;;;;;8.09;57.19;101213.00;2052179;28;47945;-58
2022/01/07 00:44:21;;;;;;;;;12.75;12.00;;;;;8.09;57.41;101220.03;2053429;28;47030;-58
2022/01/07 00:45:23;;;;;;;;;11.25;11.25;;;;;8.06;57.46;101205.06;2052497;28;47330;-59
2022/01/07 00:46:23;;;;;;;;;10.60;10.60;;;;;8.05;57.52;101210.38;2048044;28;47540;-58
2022/01/07 00:47:24;;;;;;;;;8.75;8.75;;;;;8.05;57.64;101202.44;2048344;28;47605;-58
2022/01/07 00:48:25;;;;;;;;;11.00;10.25;;;;;8.03;57.56;101204.22;2049656;28;47026;-59
2022/01/07 00:49:25;;;;;;;;;10.25;10.25;;;;;8.02;57.44;101202.47;2051702;28;47149;-59
2022/01/07 00:50:28;;;;;;;;;11.50;9.25;;;;;8.01;57.71;101206.00;2051196;28;47174;-59
2022/01/07 00:51:28;;;;;;;;;12.00;10.60;;;;;8.01;57.88;101203.34;2056998;28;47218;-58
2022/01/07 00:52:29;;;;;;;;;11.00;11.00;;;;;8.00;57.82;101202.44;2052128;28;48394;-58
2022/01/07 00:53:29;;;;;;;;;13.25;12.00;;;;;8.00;57.88;101206.84;2050808;28;47253;-58
2022/01/07 00:54:30;;;;;;;;;12.00;11.75;;;;;7.98;58.12;101197.16;2049691;28;47160;-59
2022/01/07 00:55:31;;;;;;;;;10.50;10.50;;;;;7.98;57.82;101205.09;2051249;28;47157;-59
2022/01/07 00:56:31;;;;;;;;;10.40;10.40;;;;;7.99;58.11;101211.25;2049631;28;46886;-59
2022/01/07 00:57:32;;;;;;;;;11.00;9.75;;;;;7.98;57.83;101204.22;2052005;28;46582;-59
2022/01/07 00:58:32;;;;;;;;;11.75;11.00;;;;;7.97;58.36;101194.53;2053468;28;48586;-59
2022/01/07 00:59:33;;;;;;;;;10.50;10.50;;;;;7.96;58.10;101206.88;2052017;28;48320;-59
2022/01/07 01:00:34;;;;;;;;;9.25;9.25;;;;;7.96;58.19;101203.34;2049096;28;47856;-59
2022/01/07 01:01:35;;;;;;;;;10.00;10.00;;;;;7.95;57.89;101202.47;2048456;28;47870;-59
2022/01/07 01:02:36;;;;;;;;;5.20;4.20;;;;;7.97;58.15;101202.47;2054466;28;47570;-59
2022/01/07 01:03:37;;;;;;;;;11.20;9.80;;;;;7.97;58.11;101190.13;2052557;28;47310;-59
2022/01/07 01:04:37;;;;;;;;;9.25;8.75;;;;;7.95;58.06;101199.81;2051270;28;48314;-59
2022/01/07 01:05:39;;;;;;;;;6.25;6.25;;;;;7.95;58.13;101207.75;2053595;28;48180;-59
2022/01/07 01:06:41;;;;;;;;;7.20;7.20;;;;;7.96;58.44;101200.69;2054795;28;47465;-60
2022/01/07 01:07:42;;;;;;;;;9.80;8.60;;;;;7.95;58.24;101213.03;2053501;28;48172;-59
2022/01/07 01:08:43;;;;;;;;;9.00;9.00;;;;;7.93;58.28;101206.00;2053324;28;47468;-60
2022/01/07 01:09:43;;;;;;;;;8.75;8.00;;;;;7.94;58.33;101189.25;2053482;28;47406;-59
2022/01/07 01:10:44;;;;;;;;;8.75;5.50;;;;;7.94;58.39;101198.06;2048457;28;48208;-59
2022/01/07 01:11:45;;;;;;;;;10.25;9.50;;;;;7.93;58.42;101188.38;2053127;28;48073;-59
2022/01/07 01:12:47;;;;;;;;;9.40;8.80;;;;;7.93;58.42;101190.16;2053441;28;47847;-60
2022/01/07 01:13:47;;;;;;;;;11.20;9.60;;;;;7.93;58.54;101191.03;2055602;28;48446;-59
2022/01/07 01:14:50;;;;;;;;;9.40;9.40;;;;;7.94;58.78;101189.25;2053887;28;48089;-59
2022/01/07 01:15:51;;;;;;;;;10.50;10.50;;;;;7.94;58.68;101190.13;2050563;27;47503;-59
2022/01/07 01:16:52;;;;;;;;;10.00;9.00;;;;;7.93;58.51;101200.72;2053149;28;47133;-59
2022/01/07 01:17:54;;;;;;;;;11.00;11.00;;;;;7.92;58.51;101197.19;2053616;28;46964;-59
2022/01/07 01:18:55;;;;;;;;;9.40;9.20;;;;;7.91;58.54;101187.50;2052979;28;47748;-58
2022/01/07 01:19:55;;;;;;;;;9.75;9.75;;;;;7.91;58.38;101191.91;2053296;27;47812;-59
2022/01/07 01:20:56;;;;;;;;;12.00;12.00;;;;;7.90;58.58;101187.53;2047979;28;47176;-60
2022/01/07 01:21:56;;;;;;;;;6.00;6.00;;;;;7.89;58.80;101188.41;2051300;28;48295;-58
2022/01/07 01:22:57;;;;;;;;;12.25;12.25;;;;;7.89;58.75;101188.41;2052568;28;47149;-59
2022/01/07 01:23:57;;;;;;;;;12.00;9.00;;;;;7.88;58.66;101184.00;2050288;28;47659;-59
2022/01/07 01:24:57;;;;;;;;;10.50;9.00;;;;;7.86;58.97;101178.69;2053614;28;47395;-58
2022/01/07 01:25:58;;;;;;;;;9.50;9.50;;;;;7.85;58.85;101181.34;2049087;28;46169;-58
2022/01/07 01:26:59;;;;;;;;;12.20;10.80;;;;;7.85;58.85;101173.44;2051510;28;48018;-59
2022/01/07 01:27:59;;;;;;;;;8.00;5.25;;;;;7.84;58.97;101177.84;2052450;28;47335;-59
2022/01/07 01:29:00;;;;;;;;;9.25;9.25;;;;;7.84;59.07;101171.66;2051916;28;47251;-59
2022/01/07 01:30:03;;;;;;;;;9.00;9.00;;;;;7.83;58.86;101176.06;2053112;28;47348;-59
2022/01/07 01:31:03;;;;;;;;;10.20;9.60;;;;;7.84;58.68;101185.75;2058783;27;47957;-59
2022/01/07 01:32:04;;;;;;;;;9.25;9.00;;;;;7.85;58.93;101176.06;2058971;27;47284;-58
2022/01/07 01:33:05;;;;;;;;;7.40;6.40;;;;;7.84;58.85;101175.19;2047499;28;47058;-58
2022/01/07 01:34:05;;;;;;;;;12.25;11.75;;;;;7.85;58.95;101170.78;2051843;28;48167;-59
2022/01/07 01:35:07;;;;;;;;;10.00;8.25;;;;;7.84;58.68;101169.91;2051266;28;48269;-58
2022/01/07 01:36:11;;;;;;;;;11.20;11.20;;;;;7.84;58.78;101182.25;2048950;28;47201;-61
2022/01/07 01:37:12;;;;;;;;;11.20;11.20;;;;;7.84;59.01;101169.03;2052902;28;48293;-59
2022/01/07 01:38:12;;;;;;;;;10.00;8.75;;;;;7.85;59.15;101184.00;2052571;28;47165;-59
2022/01/07 01:39:13;;;;;;;;;11.00;9.00;;;;;7.85;58.83;101187.50;2053049;28;47265;-58
2022/01/07 01:40:15;;;;;;;;;10.50;9.50;;;;;7.86;58.94;101177.81;2050985;28;48025;-59
2022/01/07 01:41:15;;;;;;;;;7.60;7.60;;;;;7.85;59.04;101170.78;2047869;28;47195;-59
2022/01/07 01:42:16;;;;;;;;;6.50;6.00;;;;;7.83;58.87;101169.91;2052482;28;47181;-60
2022/01/07 01:43:16;;;;;;;;;8.50;8.50;;;;;7.84;58.98;101171.66;2051862;28;47397;-60
2022/01/07 01:44:17;;;;;;;;;12.00;9.00;;;;;7.82;59.08;101174.31;2049681;28;46718;-60
2022/01/07 01:45:19;;;;;;;;;13.25;12.25;;;;;7.84;59.19;101169.03;2052736;28;47361;-59
2022/01/07 01:46:20;;;;;;;;;12.00;10.60;;;;;7.84;58.97;101176.97;2048876;28;45365;-58
2022/01/07 01:47:20;;;;;;;;;9.75;9.00;;;;;7.84;59.00;101174.31;2051532;28;48162;-59
2022/01/07 01:48:20;;;;;;;;;10.25;10.00;;;;;7.83;59.19;101181.38;2053248;28;47423;-59
2022/01/07 01:49:21;;;;;;;;;9.75;9.75;;;;;7.82;59.20;101184.00;2052295;28;48073;-59
2022/01/07 01:50:22;;;;;;;;;10.25;10.00;;;;;7.82;58.98;101178.72;2048206;28;47098;-59
2022/01/07 01:51:23;;;;;;;;;10.40;10.40;;;;;7.81;59.02;101182.25;2050337;28;47319;-59
2022/01/07 01:52:23;;;;;;;;;11.25;10.25;;;;;7.80;59.20;101164.66;2048860;28;47071;-60
2022/01/07 01:53:25;;;;;;;;;13.25;12.00;;;;;7.78;58.98;101166.41;2052345;28;47269;-59
2022/01/07 01:54:25;;;;;;;;;10.20;9.40;;;;;7.76;58.92;101178.75;2049515;28;45612;-60
2022/01/07 01:55:27;;;;;;;;;9.00;9.00;;;;;7.77;59.21;101186.69;2050253;28;47619;-59
2022/01/07 01:56:28;;;;;;;;;12.60;12.60;;;;;7.75;59.09;101169.97;2053772;28;46002;-59
2022/01/07 01:57:29;;;;;;;;;9.00;9.00;;;;;7.74;59.01;101173.44;2054112;28;47530;-60
2022/01/07 01:58:30;;;;;;;;;13.00;11.00;;;;;7.75;59.20;101183.16;2051570;28;48101;-58
2022/01/07 01:59:32;;;;;;;;;10.25;10.00;;;;;7.75;59.24;101176.97;2052343;28;47276;-59
2022/01/07 02:00:32;;;;;;;;;10.60;10.60;;;;;7.75;59.48;101161.13;2049113;28;47117;-58
2022/01/07 02:01:34;;;;;;;;;9.75;9.25;;;;;7.74;59.11;101165.53;2050622;28;48599;-58
2022/01/07 02:02:36;;;;;;;;;10.20;10.00;;;;;7.73;59.35;101165.53;2053127;28;48256;-59
2022/01/07 02:03:36;;;;;;;;;7.20;4.00;;;;;7.74;59.43;101173.44;2051306;28;47052;-58
2022/01/07 02:04:40;;;;;;;;;0.00;0.00;;;;;7.74;59.57;101164.66;2053985;28;47842;-59
2022/01/07 02:05:41;;;;;;;;;10.20;9.00;;;;;7.76;59.32;101171.72;2050183;28;47471;-59
2022/01/07 02:06:41;;;;;;;;;11.25;11.25;;;;;7.75;59.48;101151.47;2052098;28;46978;-59
2022/01/07 02:07:41;;;;;;;;;9.75;9.75;;;;;7.75;59.56;101162.03;2054991;28;47993;-58
2022/01/07 02:08:43;;;;;;;;;8.75;8.75;;;;;7.74;59.56;101165.53;2050008;28;48615;-58
2022/01/07 02:09:44;;;;;;;;;8.80;7.40;;;;;7.73;59.42;101161.13;2050100;28;47772;-58
2022/01/07 02:10:44;;;;;;;;;9.25;9.00;;;;;7.74;59.71;101156.72;2047186;28;47050;-59
2022/01/07 02:11:45;;;;;;;;;8.00;8.00;;;;;7.72;59.36;101147.94;2052864;28;47142;-59
2022/01/07 02:12:46;;;;;;;;;8.00;8.00;;;;;7.72;59.70;101154.09;2053374;28;48082;-59
2022/01/07 02:13:48;;;;;;;;;11.00;11.00;;;;;7.75;59.78;101161.13;2062717;27;47387;-59
2022/01/07 02:14:51;;;;;;;;;8.40;8.40;;;;;7.75;59.72;101153.19;2059242;27;47538;-58
2022/01/07 02:15:52;;;;;;;;;12.00;11.00;;;;;7.75;59.58;101162.03;2054982;28;47261;-58
2022/01/07 02:16:52;;;;;;;;;10.25;9.75;;;;;7.76;59.56;101153.22;2050803;28;47505;-60
2022/01/07 02:17:53;;;;;;;;;10.50;10.50;;;;;7.75;59.51;101154.09;2053438;28;48249;-60
2022/01/07 02:18:54;;;;;;;;;9.60;9.60;;;;;7.77;59.71;101148.81;2052640;28;45700;-59
2022/01/07 02:19:56;;;;;;;;;11.40;9.60;;;;;7.78;59.69;101155.84;2052746;28;47934;-59
2022/01/07 02:20:57;;;;;;;;;10.20;10.20;;;;;7.77;59.79;101148.81;2048611;28;47513;-58
2022/01/07 02:21:57;;;;;;;;;10.00;10.00;;;;;7.77;59.81;101151.47;2052437;28;47128;-59
2022/01/07 02:22:58;;;;;;;;;10.00;9.00;;;;;7.77;59.58;101147.06;2052245;28;48117;-60
2022/01/07 02:23:59;;;;;;;;;10.60;10.60;;;;;7.78;59.68;101150.56;2053269;28;47508;-59
2022/01/07 02:24:59;;;;;;;;;9.00;9.00;;;;;7.78;59.79;101146.16;2049845;28;48340;-59
2022/01/07 02:26:00;;;;;;;;;8.50;8.50;;;;;7.79;59.67;101145.28;2046787;28;47357;-59
2022/01/07 02:27:01;;;;;;;;;11.00;11.00;;;;;7.78;59.87;101146.16;2053445;28;46491;-59
2022/01/07 02:28:03;;;;;;;;;9.20;7.80;;;;;7.78;59.64;101146.16;2049372;28;48078;-59
2022/01/07 02:29:04;;;;;;;;;12.20;10.00;;;;;7.78;59.71;101142.66;2053561;28;47520;-58
2022/01/07 02:30:08;;;;;;;;;13.00;10.60;;;;;7.77;59.72;101133.84;2052859;28;47195;-59
2022/01/07 02:31:10;;;;;;;;;10.00;10.00;;;;;7.78;59.72;101140.00;2049721;28;47547;-59
2022/01/07 02:32:11;;;;;;;;;11.40;11.40;;;;;7.77;59.77;101128.56;2050008;28;46257;-59
2022/01/07 02:33:11;;;;;;;;;12.20;11.00;;;;;7.79;59.89;101133.84;2050436;28;48688;-59
2022/01/07 02:34:11;;;;;;;;;12.50;11.00;;;;;7.80;59.93;101135.59;2052965;28;46784;-60
2022/01/07 02:35:13;;;;;;;;;11.25;9.50;;;;;7.80;60.00;101140.88;2052937;28;47380;-59
2022/01/07 02:36:14;;;;;;;;;10.80;10.00;;;;;7.80;60.09;101135.59;2046681;28;48319;-59
2022/01/07 02:37:15;;;;;;;;;12.75;9.75;;;;;7.79;59.95;101134.72;2055058;28;46711;-58
2022/01/07 02:38:16;;;;;;;;;9.80;9.80;;;;;7.79;60.09;101126.78;2048486;27;48175;-59
2022/01/07 02:39:17;;;;;;;;;10.80;10.80;;;;;7.80;60.12;101140.88;2053448;27;48294;-58
2022/01/07 02:40:17;;;;;;;;;10.75;10.00;;;;;7.81;59.96;101139.97;2050504;28;46457;-59
2022/01/07 02:41:18;;;;;;;;;11.75;10.00;;;;;7.81;60.29;101135.56;2050532;28;48229;-59
2022/01/07 02:42:18;;;;;;;;;10.00;10.00;;;;;7.81;60.03;101130.28;2060696;28;47292;-59
2022/01/07 02:43:18;;;;;;;;;10.50;10.25;;;;;7.83;60.01;101127.63;2059314;27;47912;-59
2022/01/07 02:44:19;;;;;;;;;9.50;9.25;;;;;7.83;59.89;101123.22;2049145;28;48196;-59
2022/01/07 02:45:20;;;;;;;;;11.25;11.25;;;;;7.84;59.99;101124.13;2054849;28;48240;-59
2022/01/07 02:46:20;;;;;;;;;8.20;8.20;;;;;7.84;60.10;101126.75;2053798;28;47684;-59
2022/01/07 02:47:21;;;;;;;;;12.25;10.50;;;;;7.83;60.03;101117.94;2052705;28;46921;-59
2022/01/07 02:48:22;;;;;;;;;11.00;11.00;;;;;7.84;59.92;101118.81;2052985;28;46801;-59
2022/01/07 02:49:22;;;;;;;;;9.00;9.00;;;;;7.84;60.10;101111.78;2050938;28;45894;-60
2022/01/07 02:50:28;;;;;;;;;9.00;7.75;;;;;7.84;60.18;101105.63;2048869;28;48105;-59
2022/01/07 02:51:29;;;;;;;;;10.00;8.60;;;;;7.86;60.04;101107.38;2052247;28;48427;-59
2022/01/07 02:52:29;;;;;;;;;10.25;10.25;;;;;7.87;60.01;101111.75;2076049;28;47433;-59
2022/01/07 02:53:30;;;;;;;;;12.25;11.25;;;;;7.88;60.19;101110.03;2055073;27;47127;-58
2022/01/07 02:54:30;;;;;;;;;10.50;7.75;;;;;7.88;60.07;101112.66;2050373;28;45995;-59
2022/01/07 02:55:31;;;;;;;;;11.50;11.50;;;;;7.87;60.26;101103.81;2050715;28;48410;-59
2022/01/07 02:56:32;;;;;;;;;9.80;9.80;;;;;7.89;60.12;101120.59;2047169;28;47203;-58
2022/01/07 02:57:32;;;;;;;;;10.00;9.75;;;;;7.89;60.20;101110.00;2051104;28;48048;-59
2022/01/07 02:58:33;;;;;;;;;6.25;6.25;;;;;7.90;60.19;101111.78;2050534;28;47142;-59
2022/01/07 02:59:33;;;;;;;;;9.00;9.00;;;;;7.91;60.29;101110.88;2051762;28;47442;-60
2022/01/07 03:00:35;;;;;;;;;12.50;11.25;;;;;7.92;60.36;101111.75;2049382;27;47156;-60
2022/01/07 03:01:37;;;;;;;;;7.80;7.80;;;;;7.93;60.25;101110.88;2051995;28;48355;-60
2022/01/07 03:02:38;;;;;;;;;10.60;9.40;;;;;7.94;60.20;101110.84;2053260;28;46465;-59
2022/01/07 03:03:38;;;;;;;;;8.75;8.75;;;;;7.93;60.33;101117.03;2050694;28;48103;-59
2022/01/07 03:04:39;;;;;;;;;13.25;10.75;;;;;7.94;60.20;101113.50;2051401;28;47146;-58
2022/01/07 03:05:41;;;;;;;;;12.00;11.50;;;;;7.94;60.21;101116.16;2052438;28;47210;-60
2022/01/07 03:06:42;;;;;;;;;7.20;7.20;;;;;7.95;60.22;101117.91;2050984;28;47195;-58
2022/01/07 03:07:44;;;;;;;;;10.75;10.00;;;;;7.95;60.26;101114.38;2053343;28;47046;-58
2022/01/07 03:08:46;;;;;;;;;8.40;7.60;;;;;7.95;60.42;101109.97;2053015;28;46259;-59
2022/01/07 03:09:46;;;;;;;;;9.00;9.00;;;;;7.96;60.29;101119.66;2053325;28;48203;-59
2022/01/07 03:10:47;;;;;;;;;9.75;9.75;;;;;7.95;60.13;101114.38;2047634;28;46076;-59
2022/01/07 03:11:47;;;;;;;;;10.00;9.75;;;;;7.95;60.40;101102.03;2053387;28;48022;-59
2022/01/07 03:12:47;;;;;;;;;6.50;6.00;;;;;7.95;60.16;101112.63;2052619;28;47273;-59
2022/01/07 03:13:48;;;;;;;;;10.50;10.50;;;;;7.97;60.17;101105.56;2053537;28;47919;-59
2022/01/07 03:14:49;;;;;;;;;11.25;9.00;;;;;7.97;60.23;101116.13;2053465;28;48227;-58
2022/01/07 03:15:50;;;;;;;;;9.00;9.00;;;;;7.98;60.24;101117.00;2052053;28;48414;-59
2022/01/07 03:16:50;;;;;;;;;11.50;8.50;;;;;7.98;60.34;101107.31;2050493;28;46026;-59
2022/01/07 03:17:51;;;;;;;;;3.00;1.50;;;;;7.98;60.33;101106.44;2053709;28;47235;-59
2022/01/07 03:18:51;;;;;;;;;11.50;10.25;;;;;8.00;60.22;101103.78;2051918;28;45585;-59
2022/01/07 03:19:52;;;;;;;;;12.50;11.25;;;;;8.00;60.42;101109.94;2052085;28;47209;-59
2022/01/07 03:20:52;;;;;;;;;10.25;10.00;;;;;8.01;60.42;101108.19;2046785;28;48155;-59
2022/01/07 03:21:53;;;;;;;;;10.50;10.00;;;;;8.01;60.38;101111.72;2046698;28;48001;-58
2022/01/07 03:22:53;;;;;;;;;10.00;9.00;;;;;8.02;60.24;101110.84;2044984;28;47224;-59
2022/01/07 03:23:54;;;;;;;;;12.00;10.50;;;;;8.02;60.19;101113.47;2049431;28;48252;-59
2022/01/07 03:24:54;;;;;;;;;7.75;7.75;;;;;8.03;60.16;101111.72;2052193;28;48308;-58
2022/01/07 03:25:54;;;;;;;;;7.00;5.75;;;;;8.03;60.13;101106.44;2049325;28;47652;-59
2022/01/07 03:26:55;;;;;;;;;9.00;9.00;;;;;8.05;60.31;101112.56;2052936;28;47375;-59
2022/01/07 03:27:55;;;;;;;;;8.75;8.75;;;;;8.05;60.38;101110.81;2053267;28;48134;-59
2022/01/07 03:28:56;;;;;;;;;9.00;7.50;;;;;8.07;60.41;101108.16;2050563;28;48071;-59
2022/01/07 03:29:56;;;;;;;;;8.50;7.25;;;;;8.07;60.29;101113.44;2047388;27;48051;-59
2022/01/07 03:30:57;;;;;;;;;10.25;9.00;;;;;8.09;60.10;101115.19;2048009;28;47886;-59
2022/01/07 03:31:57;;;;;;;;;9.50;9.50;;;;;8.09;60.02;101106.38;2053233;28;47061;-58
2022/01/07 03:32:58;;;;;;;;;8.50;8.00;;;;;8.09;60.27;101112.53;2051329;28;48213;-60
2022/01/07 03:33:58;;;;;;;;;10.25;10.25;;;;;8.09;60.33;101107.25;2047901;28;48139;-60
2022/01/07 03:34:59;;;;;;;;;9.00;8.75;;;;;8.09;60.25;101106.38;2052650;28;47784;-60
2022/01/07 03:35:59;;;;;;;;;11.00;11.00;;;;;8.10;60.40;101100.19;2053265;28;47287;-58
2022/01/07 03:37:00;;;;;;;;;6.00;6.00;;;;;8.09;60.19;101104.63;2052967;28;48233;-59
2022/01/07 03:38:01;;;;;;;;;8.25;5.75;;;;;8.10;60.00;101098.44;2052781;28;47930;-59
2022/01/07 03:39:03;;;;;;;;;8.80;7.80;;;;;8.10;60.01;101092.28;2049348;28;46097;-59
2022/01/07 03:40:05;;;;;;;;;10.40;9.00;;;;;8.11;60.51;101094.91;2051837;28;47299;-59
2022/01/07 03:41:05;;;;;;;;;6.00;6.00;;;;;8.12;60.27;101098.41;2053002;28;47344;-58
2022/01/07 03:42:06;;;;;;;;;12.50;9.25;;;;;8.14;60.04;101091.41;2052788;28;48607;-59
2022/01/07 03:43:07;;;;;;;;;5.25;5.25;;;;;8.15;60.01;101095.78;2052422;28;47284;-59
2022/01/07 03:44:08;;;;;;;;;9.20;6.80;;;;;8.15;60.12;101101.06;2053203;28;47077;-59
2022/01/07 03:45:09;;;;;;;;;6.00;6.00;;;;;8.16;60.14;101101.06;2052872;28;47835;-59
2022/01/07 03:46:10;;;;;;;;;7.40;6.20;;;;;8.18;60.20;101091.34;2049317;28;48212;-59
2022/01/07 03:47:11;;;;;;;;;6.75;6.75;;;;;8.18;60.00;101093.13;2052356;28;45364;-59
2022/01/07 03:48:11;;;;;;;;;6.75;6.00;;;;;8.20;60.13;101096.63;2052989;28;47099;-59
2022/01/07 03:49:12;;;;;;;;;7.25;6.00;;;;;8.21;60.04;101091.31;2050866;28;47346;-59
2022/01/07 03:50:14;;;;;;;;;11.75;7.25;;;;;8.20;60.04;101091.34;2051547;28;46965;-59
2022/01/07 03:51:15;;;;;;;;;7.40;6.40;;;;;8.21;60.06;101088.69;2051446;28;46211;-60
2022/01/07 03:52:15;;;;;;;;;6.75;5.25;;;;;8.21;60.02;101095.75;2052962;28;47366;-59
2022/01/07 03:53:16;;;;;;;;;6.00;6.00;;;;;8.20;59.80;101086.94;2051319;28;48661;-59
2022/01/07 03:54:16;;;;;;;;;6.00;6.00;;;;;8.21;60.18;101101.03;2052768;28;46799;-59
2022/01/07 03:55:20;;;;;;;;;8.50;7.25;;;;;8.20;59.84;101092.22;2051587;28;47093;-59
2022/01/07 03:56:21;;;;;;;;;11.60;8.80;;;;;8.20;59.97;101086.06;2046512;28;48708;-58
2022/01/07 03:57:21;;;;;;;;;5.75;5.00;;;;;8.20;59.90;101075.47;2053072;28;47769;-59
2022/01/07 03:58:22;;;;;;;;;5.50;5.50;;;;;8.19;59.94;101082.53;2053053;28;47175;-59
2022/01/07 03:59:22;;;;;;;;;6.00;5.75;;;;;8.19;60.05;101098.41;2051516;28;48018;-59
2022/01/07 04:00:32;;;;;;;;;4.50;4.50;;;;;8.20;59.95;101091.34;2050073;28;48191;-59
2022/01/07 04:01:32;;;;;;;;;6.80;6.80;;;;;8.20;60.06;101093.97;2051138;28;47354;-59
2022/01/07 04:02:33;;;;;;;;;9.25;8.00;;;;;8.22;60.17;101086.91;2053703;28;46171;-59
2022/01/07 04:03:33;;;;;;;;;10.00;7.25;;;;;8.22;59.95;101079.88;2049337;28;48435;-59
2022/01/07 04:04:33;;;;;;;;;6.00;6.00;;;;;8.22;59.86;101085.16;2053357;28;47608;-59
2022/01/07 04:05:34;;;;;;;;;6.75;6.00;;;;;8.22;59.78;101082.50;2050474;28;48492;-59
2022/01/07 04:06:34;;;;;;;;;6.00;6.00;;;;;8.23;59.81;101093.97;2050926;28;47350;-59
2022/01/07 04:07:35;;;;;;;;;4.00;4.00;;;;;8.23;60.04;101088.66;2053115;28;47489;-59
2022/01/07 04:08:36;;;;;;;;;7.80;6.20;;;;;8.23;59.88;101084.25;2055882;28;48407;-59
2022/01/07 04:09:36;;;;;;;;;9.25;7.25;;;;;8.23;59.79;101073.69;2051002;28;47017;-61
2022/01/07 04:10:38;;;;;;;;;6.50;6.50;;;;;8.23;59.91;101072.81;2046246;28;47285;-59
2022/01/07 04:11:38;;;;;;;;;8.80;8.80;;;;;8.24;59.96;101069.28;2053022;28;47681;-59
2022/01/07 04:12:39;;;;;;;;;7.25;7.25;;;;;8.25;59.82;101066.63;2053176;28;48008;-59
2022/01/07 04:13:39;;;;;;;;;5.75;5.75;;;;;8.26;59.83;101064.88;2052926;28;48101;-59
2022/01/07 04:14:40;;;;;;;;;5.75;5.25;;;;;8.26;59.71;101063.13;2050797;28;47219;-59
2022/01/07 04:15:41;;;;;;;;;7.40;7.40;;;;;8.26;59.73;101064.88;2050528;28;47840;-59
2022/01/07 04:16:41;;;;;;;;;6.00;6.00;;;;;8.26;59.59;101059.59;2047812;28;47954;-59
2022/01/07 04:17:46;;;;;;;;;4.50;4.50;;;;;8.24;59.63;101058.69;2050308;28;47436;-60
2022/01/07 04:18:46;;;;;;;;;4.80;4.80;;;;;8.25;59.55;101060.44;2050724;28;45464;-60
2022/01/07 04:19:47;;;;;;;;;6.50;3.50;;;;;8.25;59.81;101058.69;2051420;28;47004;-59
2022/01/07 04:20:47;;;;;;;;;6.50;6.50;;;;;8.25;59.65;101063.09;2048106;28;47009;-59
2022/01/07 04:21:50;;;;;;;;;7.50;6.00;;;;;8.26;59.74;101059.59;2052541;28;45392;-58
2022/01/07 04:22:51;;;;;;;;;6.20;5.80;;;;;8.27;59.64;101066.63;2052426;28;47270;-60
2022/01/07 04:23:52;;;;;;;;;6.50;5.50;;;;;8.26;59.69;101064.88;2049177;28;47693;-59
2022/01/07 04:24:52;;;;;;;;;6.75;6.75;;;;;8.26;59.79;101067.53;2051648;28;48262;-58
2022/01/07 04:25:53;;;;;;;;;5.00;5.00;;;;;8.25;59.46;101063.97;2050754;28;48172;-58
2022/01/07 04:26:54;;;;;;;;;5.00;5.00;;;;;8.24;59.62;101062.22;2052987;28;47232;-59
2022/01/07 04:28:03;;;;;;;;;5.40;5.40;;;;;8.25;59.65;101058.69;2052816;28;47770;-59
2022/01/07 04:29:03;;;;;;;;;5.00;5.00;;;;;8.25;59.69;101066.63;2049363;27;47293;-59
2022/01/07 04:30:04;;;;;;;;;7.75;7.25;;;;;8.27;59.61;101059.56;2052141;28;47033;-58
2022/01/07 04:31:04;;;;;;;;;6.00;6.00;;;;;8.28;59.78;101057.81;2049791;28;47288;-58
2022/01/07 04:32:06;;;;;;;;;4.25;4.25;;;;;8.29;59.72;101061.31;2052237;28;48158;-60
2022/01/07 04:33:10;;;;;;;;;6.80;6.80;;;;;8.29;59.96;101056.03;2053804;27;47086;-59
2022/01/07 04:34:10;;;;;;;;;4.80;4.80;;;;;8.31;59.71;101048.97;2049688;28;47359;-59
2022/01/07 04:35:13;;;;;;;;;5.25;5.25;;;;;8.31;59.55;101056.91;2049346;28;48182;-59
2022/01/07 04:36:13;;;;;;;;;6.60;6.60;;;;;8.31;59.51;101051.63;2052968;28;47384;-59
2022/01/07 04:37:14;;;;;;;;;5.25;5.25;;;;;8.31;59.53;101051.63;2051959;28;47356;-59
2022/01/07 04:38:15;;;;;;;;;5.75;5.75;;;;;8.31;59.50;101054.25;2052456;28;47324;-59
2022/01/07 04:39:15;;;;;;;;;7.00;6.00;;;;;8.32;59.65;101054.25;2051905;28;47150;-59
2022/01/07 04:40:17;;;;;;;;;7.25;7.25;;;;;8.34;59.75;101054.22;2051169;28;47507;-59
2022/01/07 04:41:17;;;;;;;;;7.00;5.00;;;;;8.34;59.68;101057.78;2049853;28;47224;-59
2022/01/07 04:42:18;;;;;;;;;6.00;5.25;;;;;8.34;59.46;101062.16;2052386;28;47817;-60
2022/01/07 04:43:18;;;;;;;;;5.50;5.50;;;;;8.34;59.41;101059.53;2050586;28;47293;-58
2022/01/07 04:44:19;;;;;;;;;3.00;3.00;;;;;8.34;59.43;101059.53;2048983;28;48060;-59